sensor_id;sensor_type;location;lat;lon;timestamp;pressure;altitude;pressure_sealevel;temperature;humidity
43155;BME280;34212;51.018;13.586;2022-12-18T00:03:17;99240.63;;;-4.07;72.18
43155;BME280;34212;51.018;13.586;2022-12-18T00:08:20;99257.03;;;-4.05;72.00
43155;BME280;34212;51.018;13.586;2022-12-18T00:13:21;99264.22;;;-4.12;71.66
43155;BME280;34212;51.018;13.586;2022-12-18T00:18:23;99273.09;;;-4.18;72.03
43155;BME280;34212;51.018;13.586;2022-12-18T00:23:24;99261.25;;;-4.26;71.84
43155;BME280;34212;51.018;13.586;2022-12-18T00:28:25;99269.09;;;-4.28;72.37
43155;BME280;34212;51.018;13.586;2022-12-18T00:33:27;99258.91;;;-4.34;71.95
43155;BME280;34212;51.018;13.586;2022-12-18T00:38:29;99266.03;;;-4.39;71.50
43155;BME280;34212;51.018;13.586;2022-12-18T00:43:34;99260.94;;;-4.42;71.67
43155;BME280;34212;51.018;13.586;2022-12-18T00:48:36;99268.78;;;-4.44;71.56
43155;BME280;34212;51.018;13.586;2022-12-18T00:53:37;99266.97;;;-4.42;71.19
43155;BME280;34212;51.018;13.586;2022-12-18T00:58:40;99286.34;;;-4.50;71.53
43155;BME280;34212;51.018;13.586;2022-12-18T01:03:42;99286.66;;;-4.59;71.69
43155;BME280;34212;51.018;13.586;2022-12-18T01:08:44;99299.88;;;-4.66;71.20
43155;BME280;34212;51.018;13.586;2022-12-18T01:13:46;99302.03;;;-4.80;70.97
43155;BME280;34212;51.018;13.586;2022-12-18T01:18:51;99311.09;;;-5.21;70.30
43155;BME280;34212;51.018;13.586;2022-12-18T01:23:55;99292.75;;;-5.46;70.84
43155;BME280;34212;51.018;13.586;2022-12-18T01:28:57;99305.41;;;-5.34;70.71
43155;BME280;34212;51.018;13.586;2022-12-18T01:34:04;99298.06;;;-5.20;70.47
43155;BME280;34212;51.018;13.586;2022-12-18T01:39:13;99303.94;;;-5.13;70.92
43155;BME280;34212;51.018;13.586;2022-12-18T01:49:57;99287.88;;;-4.99;71.02
43155;BME280;34212;51.018;13.586;2022-12-18T01:55:00;99298.00;;;-4.89;71.08
43155;BME280;34212;51.018;13.586;2022-12-18T02:00:29;99293.63;;;-4.88;70.83
43155;BME280;34212;51.018;13.586;2022-12-18T02:05:53;99294.66;;;-4.94;70.65
43155;BME280;34212;51.018;13.586;2022-12-18T02:11:22;99298.47;;;-5.05;70.55
43155;BME280;34212;51.018;13.586;2022-12-18T02:16:45;99294.28;;;-5.09;70.56
43155;BME280;34212;51.018;13.586;2022-12-18T02:27:09;99312.41;;;-5.06;70.55
43155;BME280;34212;51.018;13.586;2022-12-18T02:32:15;99308.78;;;-5.01;70.77
43155;BME280;34212;51.018;13.586;2022-12-18T02:37:19;99300.97;;;-5.01;70.54
43155;BME280;34212;51.018;13.586;2022-12-18T02:42:24;99303.75;;;-5.07;70.49
43155;BME280;34212;51.018;13.586;2022-12-18T02:47:31;99308.78;;;-5.02;70.61
43155;BME280;34212;51.018;13.586;2022-12-18T02:52:49;99309.34;;;-4.91;70.51
43155;BME280;34212;51.018;13.586;2022-12-18T02:57:58;99300.44;;;-4.84;70.49
43155;BME280;34212;51.018;13.586;2022-12-18T03:03:18;99319.59;;;-4.87;71.21
43155;BME280;34212;51.018;13.586;2022-12-18T03:08:23;99306.66;;;-4.88;70.96
43155;BME280;34212;51.018;13.586;2022-12-18T03:13:34;99315.56;;;-4.97;70.80
43155;BME280;34212;51.018;13.586;2022-12-18T03:18:51;99311.59;;;-5.08;70.56
43155;BME280;34212;51.018;13.586;2022-12-18T03:23:54;99308.50;;;-5.21;70.67
43155;BME280;34212;51.018;13.586;2022-12-18T03:29:06;99317.50;;;-5.33;70.45
43155;BME280;34212;51.018;13.586;2022-12-18T03:34:17;99321.25;;;-5.43;70.46
43155;BME280;34212;51.018;13.586;2022-12-18T03:39:21;99315.97;;;-5.40;70.44
43155;BME280;34212;51.018;13.586;2022-12-18T03:44:35;99312.28;;;-5.33;70.00
43155;BME280;34212;51.018;13.586;2022-12-18T03:49:53;99328.59;;;-5.26;70.07
43155;BME280;34212;51.018;13.586;2022-12-18T03:55:01;99325.84;;;-5.22;70.15
43155;BME280;34212;51.018;13.586;2022-12-18T04:00:13;99326.63;;;-5.18;70.17
43155;BME280;34212;51.018;13.586;2022-12-18T04:05:28;99331.72;;;-5.15;69.72
43155;BME280;34212;51.018;13.586;2022-12-18T04:10:31;99338.69;;;-5.16;69.89
43155;BME280;34212;51.018;13.586;2022-12-18T04:15:37;99337.75;;;-5.13;70.40
43155;BME280;34212;51.018;13.586;2022-12-18T04:20:44;99347.16;;;-5.09;70.31
43155;BME280;34212;51.018;13.586;2022-12-18T04:25:47;99344.38;;;-5.03;70.42
43155;BME280;34212;51.018;13.586;2022-12-18T04:30:54;99343.28;;;-4.96;70.77
43155;BME280;34212;51.018;13.586;2022-12-18T04:35:56;99347.72;;;-4.99;70.55
43155;BME280;34212;51.018;13.586;2022-12-18T04:40:58;99356.72;;;-5.09;70.86
43155;BME280;34212;51.018;13.586;2022-12-18T04:46:05;99362.13;;;-5.17;70.69
43155;BME280;34212;51.018;13.586;2022-12-18T04:51:07;99362.94;;;-5.15;70.66
43155;BME280;34212;51.018;13.586;2022-12-18T04:56:12;99350.88;;;-5.18;70.95
43155;BME280;34212;51.018;13.586;2022-12-18T05:01:15;99347.69;;;-5.27;70.45
43155;BME280;34212;51.018;13.586;2022-12-18T05:06:17;99354.88;;;-5.36;70.65
43155;BME280;34212;51.018;13.586;2022-12-18T05:11:19;99347.09;;;-5.37;70.47
43155;BME280;34212;51.018;13.586;2022-12-18T05:16:20;99347.00;;;-5.34;70.35
43155;BME280;34212;51.018;13.586;2022-12-18T05:21:22;99363.47;;;-5.34;70.51
43155;BME280;34212;51.018;13.586;2022-12-18T05:26:23;99361.69;;;-5.31;70.63
43155;BME280;34212;51.018;13.586;2022-12-18T05:31:25;99359.19;;;-5.36;70.71
43155;BME280;34212;51.018;13.586;2022-12-18T05:36:26;99354.03;;;-5.38;70.75
43155;BME280;34212;51.018;13.586;2022-12-18T05:41:28;99348.03;;;-5.40;70.57
43155;BME280;34212;51.018;13.586;2022-12-18T05:46:29;99348.78;;;-5.36;70.17
43155;BME280;34212;51.018;13.586;2022-12-18T05:51:31;99348.78;;;-5.36;70.46
43155;BME280;34212;51.018;13.586;2022-12-18T05:56:32;99355.88;;;-5.41;69.94
43155;BME280;34212;51.018;13.586;2022-12-18T06:01:34;99367.28;;;-5.47;70.01
43155;BME280;34212;51.018;13.586;2022-12-18T06:06:36;99373.44;;;-5.49;69.90
43155;BME280;34212;51.018;13.586;2022-12-18T06:11:38;99376.84;;;-5.47;70.15
43155;BME280;34212;51.018;13.586;2022-12-18T06:16:40;99373.34;;;-5.46;69.99
43155;BME280;34212;51.018;13.586;2022-12-18T06:21:41;99389.97;;;-5.52;69.84
43155;BME280;34212;51.018;13.586;2022-12-18T06:26:43;99383.16;;;-5.56;70.10
43155;BME280;34212;51.018;13.586;2022-12-18T06:31:44;99389.09;;;-5.52;69.77
43155;BME280;34212;51.018;13.586;2022-12-18T06:36:46;99387.50;;;-5.57;69.85
43155;BME280;34212;51.018;13.586;2022-12-18T06:41:47;99387.53;;;-5.58;70.01
43155;BME280;34212;51.018;13.586;2022-12-18T06:46:49;99390.13;;;-5.58;69.61
43155;BME280;34212;51.018;13.586;2022-12-18T06:51:50;99399.81;;;-5.65;69.70
43155;BME280;34212;51.018;13.586;2022-12-18T06:56:52;99400.56;;;-5.60;69.45
43155;BME280;34212;51.018;13.586;2022-12-18T07:01:56;99413.34;;;-5.50;69.82
43155;BME280;34212;51.018;13.586;2022-12-18T07:06:57;99412.44;;;-5.49;70.07
43155;BME280;34212;51.018;13.586;2022-12-18T07:11:59;99413.19;;;-5.46;69.81
43155;BME280;34212;51.018;13.586;2022-12-18T07:17:00;99415.69;;;-5.41;69.91
43155;BME280;34212;51.018;13.586;2022-12-18T07:22:02;99411.19;;;-5.36;69.62
43155;BME280;34212;51.018;13.586;2022-12-18T07:27:04;99421.75;;;-5.41;69.82
43155;BME280;34212;51.018;13.586;2022-12-18T07:32:08;99422.88;;;-5.51;69.96
43155;BME280;34212;51.018;13.586;2022-12-18T07:37:10;99429.78;;;-5.50;69.82
43155;BME280;34212;51.018;13.586;2022-12-18T07:42:11;99430.69;;;-5.51;69.85
43155;BME280;34212;51.018;13.586;2022-12-18T07:47:34;99441.88;;;-5.49;69.95
43155;BME280;34212;51.018;13.586;2022-12-18T07:52:36;99448.81;;;-5.49;70.72
43155;BME280;34212;51.018;13.586;2022-12-18T07:57:37;99446.00;;;-5.40;70.88
43155;BME280;34212;51.018;13.586;2022-12-18T08:02:51;99447.44;;;-5.30;70.77
43155;BME280;34212;51.018;13.586;2022-12-18T08:07:53;99442.97;;;-5.25;70.90
43155;BME280;34212;51.018;13.586;2022-12-18T08:12:54;99434.09;;;-5.16;70.99
43155;BME280;34212;51.018;13.586;2022-12-18T08:18:03;99430.47;;;-5.11;70.80
43155;BME280;34212;51.018;13.586;2022-12-18T08:23:04;99436.38;;;-5.05;70.50
43155;BME280;34212;51.018;13.586;2022-12-18T08:28:06;99434.50;;;-5.00;71.45
43155;BME280;34212;51.018;13.586;2022-12-18T08:33:07;99440.25;;;-4.89;71.63
43155;BME280;34212;51.018;13.586;2022-12-18T08:38:09;99438.34;;;-4.82;71.60
43155;BME280;34212;51.018;13.586;2022-12-18T08:43:11;99448.75;;;-4.82;72.18
43155;BME280;34212;51.018;13.586;2022-12-18T08:48:31;99451.31;;;-4.81;71.94
43155;BME280;34212;51.018;13.586;2022-12-18T08:53:32;99448.44;;;-4.72;72.39
43155;BME280;34212;51.018;13.586;2022-12-18T08:58:37;99458.56;;;-4.61;72.96
43155;BME280;34212;51.018;13.586;2022-12-18T09:03:39;99448.63;;;-4.48;72.90
43155;BME280;34212;51.018;13.586;2022-12-18T09:08:43;99448.09;;;-4.31;73.19
43155;BME280;34212;51.018;13.586;2022-12-18T09:13:45;99457.22;;;-4.18;73.36
43155;BME280;34212;51.018;13.586;2022-12-18T09:18:46;99477.78;;;-4.09;73.94
43155;BME280;34212;51.018;13.586;2022-12-18T09:23:52;99479.91;;;-3.92;73.58
43155;BME280;34212;51.018;13.586;2022-12-18T09:28:54;99485.56;;;-3.79;74.01
43155;BME280;34212;51.018;13.586;2022-12-18T09:33:57;99477.44;;;-3.70;74.08
43155;BME280;34212;51.018;13.586;2022-12-18T09:38:58;99483.88;;;-3.55;74.13
43155;BME280;34212;51.018;13.586;2022-12-18T09:49:15;99474.16;;;-3.23;74.74
43155;BME280;34212;51.018;13.586;2022-12-18T09:54:37;99461.56;;;-3.12;75.17
43155;BME280;34212;51.018;13.586;2022-12-18T09:59:44;99470.03;;;-3.06;74.52
43155;BME280;34212;51.018;13.586;2022-12-18T10:05:17;99455.06;;;-3.00;74.91
43155;BME280;34212;51.018;13.586;2022-12-18T10:21:02;99426.19;;;-2.96;75.27
43155;BME280;34212;51.018;13.586;2022-12-18T10:26:10;99413.69;;;-2.88;75.21
43155;BME280;34212;51.018;13.586;2022-12-18T10:31:19;99410.06;;;-2.84;75.43
43155;BME280;34212;51.018;13.586;2022-12-18T10:36:22;99405.72;;;-2.83;75.76
43155;BME280;34212;51.018;13.586;2022-12-18T10:41:26;99393.38;;;-2.80;75.87
43155;BME280;34212;51.018;13.586;2022-12-18T10:46:29;99394.03;;;-2.74;76.06
43155;BME280;34212;51.018;13.586;2022-12-18T10:51:36;99393.81;;;-2.68;76.04
43155;BME280;34212;51.018;13.586;2022-12-18T10:56:39;99404.03;;;-2.62;76.57
43155;BME280;34212;51.018;13.586;2022-12-18T11:01:57;99392.38;;;-2.53;76.46
43155;BME280;34212;51.018;13.586;2022-12-18T11:12:04;99383.09;;;-2.39;76.84
43155;BME280;34212;51.018;13.586;2022-12-18T11:17:18;99370.53;;;-2.29;76.76
43155;BME280;34212;51.018;13.586;2022-12-18T11:22:32;99359.09;;;-2.26;76.69
43155;BME280;34212;51.018;13.586;2022-12-18T11:27:34;99351.13;;;-2.23;76.58
43155;BME280;34212;51.018;13.586;2022-12-18T11:32:37;99363.97;;;-2.17;77.35
43155;BME280;34212;51.018;13.586;2022-12-18T11:37:41;99358.34;;;-2.08;77.42
43155;BME280;34212;51.018;13.586;2022-12-18T11:42:50;99351.16;;;-2.03;77.36
43155;BME280;34212;51.018;13.586;2022-12-18T11:48:09;99348.28;;;-1.97;77.41
43155;BME280;34212;51.018;13.586;2022-12-18T11:53:16;99358.44;;;-1.89;77.75
43155;BME280;34212;51.018;13.586;2022-12-18T12:09:40;99379.19;;;-1.64;78.04
43155;BME280;34212;51.018;13.586;2022-12-18T12:26:12;99393.25;;;-1.46;78.27
43155;BME280;34212;51.018;13.586;2022-12-18T12:31:24;99399.97;;;-1.41;78.65
43155;BME280;34212;51.018;13.586;2022-12-18T12:41:42;99400.50;;;-1.32;78.43
43155;BME280;34212;51.018;13.586;2022-12-18T12:47:15;99391.59;;;-1.28;78.41
43155;BME280;34212;51.018;13.586;2022-12-18T12:52:29;99387.16;;;-1.26;78.82
43155;BME280;34212;51.018;13.586;2022-12-18T12:57:42;99388.78;;;-1.24;78.29
43155;BME280;34212;51.018;13.586;2022-12-18T13:03:31;99386.94;;;-1.22;78.88
43155;BME280;34212;51.018;13.586;2022-12-18T13:08:24;99389.50;;;-1.20;78.50
43155;BME280;34212;51.018;13.586;2022-12-18T13:13:48;99375.88;;;-1.28;78.38
43155;BME280;34212;51.018;13.586;2022-12-18T13:18:53;99374.59;;;-1.38;77.95
43155;BME280;34212;51.018;13.586;2022-12-18T13:23:56;99383.63;;;-1.46;77.73
43155;BME280;34212;51.018;13.586;2022-12-18T13:28:59;99387.28;;;-1.50;77.55
43155;BME280;34212;51.018;13.586;2022-12-18T13:34:25;99376.19;;;-1.55;77.70
43155;BME280;34212;51.018;13.586;2022-12-18T13:39:33;99378.84;;;-1.56;77.58
43155;BME280;34212;51.018;13.586;2022-12-18T13:44:41;99364.91;;;-1.57;77.36
43155;BME280;34212;51.018;13.586;2022-12-18T13:49:43;99365.50;;;-1.50;77.52
43155;BME280;34212;51.018;13.586;2022-12-18T13:54:50;99375.00;;;-1.48;77.30
43155;BME280;34212;51.018;13.586;2022-12-18T13:59:56;99363.94;;;-1.54;77.21
43155;BME280;34212;51.018;13.586;2022-12-18T14:05:02;99365.25;;;-1.65;77.03
43155;BME280;34212;51.018;13.586;2022-12-18T14:10:15;99371.91;;;-1.78;76.82
43155;BME280;34212;51.018;13.586;2022-12-18T14:15:44;99360.97;;;-1.88;76.74
43155;BME280;34212;51.018;13.586;2022-12-18T14:20:51;99374.44;;;-1.97;77.03
43155;BME280;34212;51.018;13.586;2022-12-18T14:25:54;99368.94;;;-2.11;76.55
43155;BME280;34212;51.018;13.586;2022-12-18T14:31:01;99346.75;;;-2.23;76.14
43155;BME280;34212;51.018;13.586;2022-12-18T14:36:04;99336.81;;;-2.35;75.79
43155;BME280;34212;51.018;13.586;2022-12-18T14:41:12;99343.34;;;-2.47;75.73
43155;BME280;34212;51.018;13.586;2022-12-18T14:51:33;99345.84;;;-2.66;75.68
43155;BME280;34212;51.018;13.586;2022-12-18T14:56:37;99353.19;;;-2.75;75.47
43155;BME280;34212;51.018;13.586;2022-12-18T15:01:58;99346.50;;;-2.83;75.54
43155;BME280;34212;51.018;13.586;2022-12-18T15:17:43;99357.13;;;-3.11;75.24
43155;BME280;34212;51.018;13.586;2022-12-18T15:22:47;99344.19;;;-3.14;75.03
43155;BME280;34212;51.018;13.586;2022-12-18T15:27:49;99327.69;;;-3.14;75.13
43155;BME280;34212;51.018;13.586;2022-12-18T15:32:51;99324.38;;;-3.19;74.94
43155;BME280;34212;51.018;13.586;2022-12-18T15:37:53;99323.69;;;-3.25;75.17
43155;BME280;34212;51.018;13.586;2022-12-18T15:42:55;99325.56;;;-3.28;74.76
43155;BME280;34212;51.018;13.586;2022-12-18T15:48:21;99334.34;;;-3.31;74.61
43155;BME280;34212;51.018;13.586;2022-12-18T15:53:25;99334.44;;;-3.32;74.64
43155;BME280;34212;51.018;13.586;2022-12-18T15:58:27;99340.50;;;-3.32;74.63
43155;BME280;34212;51.018;13.586;2022-12-18T16:03:29;99314.41;;;-3.32;75.08
43155;BME280;34212;51.018;13.586;2022-12-18T16:08:31;99314.38;;;-3.30;75.32
43155;BME280;34212;51.018;13.586;2022-12-18T16:13:32;99319.72;;;-3.35;74.58
43155;BME280;34212;51.018;13.586;2022-12-18T16:18:35;99313.78;;;-3.38;74.61
43155;BME280;34212;51.018;13.586;2022-12-18T16:23:36;99322.44;;;-3.38;74.77
43155;BME280;34212;51.018;13.586;2022-12-18T16:28:38;99314.50;;;-3.35;74.79
43155;BME280;34212;51.018;13.586;2022-12-18T16:33:48;99318.88;;;-3.35;74.77
43155;BME280;34212;51.018;13.586;2022-12-18T16:38:50;99314.50;;;-3.35;75.17
43155;BME280;34212;51.018;13.586;2022-12-18T16:43:51;99311.88;;;-3.33;74.60
43155;BME280;34212;51.018;13.586;2022-12-18T16:48:57;99306.69;;;-3.35;74.89
43155;BME280;34212;51.018;13.586;2022-12-18T16:53:59;99303.00;;;-3.29;74.72
43155;BME280;34212;51.018;13.586;2022-12-18T16:59:06;99290.19;;;-3.35;74.70
43155;BME280;34212;51.018;13.586;2022-12-18T17:04:10;99303.28;;;-3.37;74.65
43155;BME280;34212;51.018;13.586;2022-12-18T17:09:13;99300.66;;;-3.37;75.16
43155;BME280;34212;51.018;13.586;2022-12-18T17:14:18;99298.13;;;-3.38;74.32
43155;BME280;34212;51.018;13.586;2022-12-18T17:19:20;99276.53;;;-3.42;75.01
43155;BME280;34212;51.018;13.586;2022-12-18T17:24:25;99289.56;;;-3.42;74.73
43155;BME280;34212;51.018;13.586;2022-12-18T17:29:33;99287.72;;;-3.40;74.86
43155;BME280;34212;51.018;13.586;2022-12-18T17:34:35;99267.66;;;-3.38;75.05
43155;BME280;34212;51.018;13.586;2022-12-18T17:39:37;99277.06;;;-3.34;74.79
43155;BME280;34212;51.018;13.586;2022-12-18T17:44:39;99279.56;;;-3.31;74.96
43155;BME280;34212;51.018;13.586;2022-12-18T17:49:41;99272.66;;;-3.32;75.06
43155;BME280;34212;51.018;13.586;2022-12-18T17:54:42;99261.25;;;-3.29;74.76
43155;BME280;34212;51.018;13.586;2022-12-18T17:59:44;99275.13;;;-3.27;75.11
43155;BME280;34212;51.018;13.586;2022-12-18T18:04:45;99255.09;;;-3.27;75.36
43155;BME280;34212;51.018;13.586;2022-12-18T18:09:47;99250.47;;;-3.20;75.34
43155;BME280;34212;51.018;13.586;2022-12-18T18:14:48;99252.13;;;-3.17;75.43
43155;BME280;34212;51.018;13.586;2022-12-18T18:19:50;99239.72;;;-3.12;75.58
43155;BME280;34212;51.018;13.586;2022-12-18T18:24:51;99236.22;;;-3.11;75.49
43155;BME280;34212;51.018;13.586;2022-12-18T18:29:53;99242.09;;;-3.06;75.42
43155;BME280;34212;51.018;13.586;2022-12-18T18:34:54;99234.03;;;-3.00;76.00
43155;BME280;34212;51.018;13.586;2022-12-18T18:39:56;99220.75;;;-2.94;75.72
43155;BME280;34212;51.018;13.586;2022-12-18T18:45:00;99223.91;;;-2.86;75.79
43155;BME280;34212;51.018;13.586;2022-12-18T18:50:02;99224.75;;;-2.85;75.91
43155;BME280;34212;51.018;13.586;2022-12-18T18:55:04;99215.28;;;-2.88;76.00
43155;BME280;34212;51.018;13.586;2022-12-18T19:00:24;99213.72;;;-2.92;75.95
43155;BME280;34212;51.018;13.586;2022-12-18T19:05:29;99192.81;;;-2.92;76.03
43155;BME280;34212;51.018;13.586;2022-12-18T19:10:31;99191.09;;;-2.93;76.10
43155;BME280;34212;51.018;13.586;2022-12-18T19:15:33;99179.69;;;-2.90;76.22
43155;BME280;34212;51.018;13.586;2022-12-18T19:20:35;99174.31;;;-2.86;76.44
43155;BME280;34212;51.018;13.586;2022-12-18T19:25:38;99175.88;;;-2.82;76.38
43155;BME280;34212;51.018;13.586;2022-12-18T19:30:43;99150.56;;;-2.80;76.52
43155;BME280;34212;51.018;13.586;2022-12-18T19:35:45;99136.31;;;-2.72;76.74
43155;BME280;34212;51.018;13.586;2022-12-18T19:40:47;99131.81;;;-2.69;76.83
43155;BME280;34212;51.018;13.586;2022-12-18T19:45:53;99138.66;;;-2.66;76.92
43155;BME280;34212;51.018;13.586;2022-12-18T19:50:55;99127.16;;;-2.62;76.74
43155;BME280;34212;51.018;13.586;2022-12-18T19:55:57;99137.50;;;-2.59;77.15
43155;BME280;34212;51.018;13.586;2022-12-18T20:00:58;99137.22;;;-2.53;76.94
43155;BME280;34212;51.018;13.586;2022-12-18T20:06:44;99130.84;;;-2.46;77.10
43155;BME280;34212;51.018;13.586;2022-12-18T20:11:46;99114.25;;;-2.45;77.12
43155;BME280;34212;51.018;13.586;2022-12-18T20:16:48;99120.91;;;-2.38;77.25
43155;BME280;34212;51.018;13.586;2022-12-18T20:21:50;99115.47;;;-2.33;76.98
43155;BME280;34212;51.018;13.586;2022-12-18T20:26:52;99141.41;;;-2.28;77.37
43155;BME280;34212;51.018;13.586;2022-12-18T20:31:54;99130.69;;;-2.22;77.12
43155;BME280;34212;51.018;13.586;2022-12-18T20:36:55;99115.09;;;-2.24;77.01
43155;BME280;34212;51.018;13.586;2022-12-18T20:41:57;99096.78;;;-2.24;77.50
43155;BME280;34212;51.018;13.586;2022-12-18T20:46:59;99101.00;;;-2.21;77.43
43155;BME280;34212;51.018;13.586;2022-12-18T20:52:09;99103.63;;;-2.21;77.51
43155;BME280;34212;51.018;13.586;2022-12-18T20:57:10;99104.41;;;-2.19;77.38
43155;BME280;34212;51.018;13.586;2022-12-18T21:02:12;99110.44;;;-2.17;77.40
43155;BME280;34212;51.018;13.586;2022-12-18T21:07:14;99101.78;;;-2.19;77.47
43155;BME280;34212;51.018;13.586;2022-12-18T21:12:16;99089.56;;;-2.19;77.36
43155;BME280;34212;51.018;13.586;2022-12-18T21:18:01;99098.13;;;-2.15;77.62
43155;BME280;34212;51.018;13.586;2022-12-18T21:23:02;99090.88;;;-2.08;77.51
43155;BME280;34212;51.018;13.586;2022-12-18T21:28:17;99089.84;;;-2.06;77.83
43155;BME280;34212;51.018;13.586;2022-12-18T21:33:19;99092.28;;;-2.01;77.82
43155;BME280;34212;51.018;13.586;2022-12-18T21:38:20;99087.47;;;-1.92;77.51
43155;BME280;34212;51.018;13.586;2022-12-18T21:43:22;99088.97;;;-1.86;77.97
43155;BME280;34212;51.018;13.586;2022-12-18T21:48:42;99080.97;;;-1.83;77.96
43155;BME280;34212;51.018;13.586;2022-12-18T21:53:44;99067.69;;;-1.78;77.53
43155;BME280;34212;51.018;13.586;2022-12-18T21:58:48;99072.91;;;-1.78;77.83
43155;BME280;34212;51.018;13.586;2022-12-18T22:03:57;99085.09;;;-1.77;77.80
43155;BME280;34212;51.018;13.586;2022-12-18T22:08:59;99080.63;;;-1.75;77.52
43155;BME280;34212;51.018;13.586;2022-12-18T22:14:00;99064.16;;;-1.77;77.75
43155;BME280;34212;51.018;13.586;2022-12-18T22:19:02;99059.06;;;-1.80;77.40
43155;BME280;34212;51.018;13.586;2022-12-18T22:24:27;99061.59;;;-1.79;77.44
43155;BME280;34212;51.018;13.586;2022-12-18T22:29:29;99059.91;;;-1.80;77.67
43155;BME280;34212;51.018;13.586;2022-12-18T22:34:49;99050.31;;;-1.79;77.65
43155;BME280;34212;51.018;13.586;2022-12-18T22:39:50;99043.25;;;-1.77;77.70
43155;BME280;34212;51.018;13.586;2022-12-18T22:44:52;99034.31;;;-1.73;77.48
43155;BME280;34212;51.018;13.586;2022-12-18T22:49:54;99023.84;;;-1.73;77.57
43155;BME280;34212;51.018;13.586;2022-12-18T22:54:55;99022.03;;;-1.71;77.51
43155;BME280;34212;51.018;13.586;2022-12-18T22:59:57;99017.56;;;-1.69;77.75
43155;BME280;34212;51.018;13.586;2022-12-18T23:04:58;99016.50;;;-1.65;78.34
43155;BME280;34212;51.018;13.586;2022-12-18T23:10:01;99006.72;;;-1.61;77.74
43155;BME280;34212;51.018;13.586;2022-12-18T23:15:03;99002.34;;;-1.61;77.76
43155;BME280;34212;51.018;13.586;2022-12-18T23:20:06;98979.41;;;-1.56;77.68
43155;BME280;34212;51.018;13.586;2022-12-18T23:25:08;98966.13;;;-1.51;77.79
43155;BME280;34212;51.018;13.586;2022-12-18T23:30:10;98959.78;;;-1.47;77.94
43155;BME280;34212;51.018;13.586;2022-12-18T23:35:12;98943.25;;;-1.48;77.65
43155;BME280;34212;51.018;13.586;2022-12-18T23:40:16;98933.63;;;-1.47;78.26
43155;BME280;34212;51.018;13.586;2022-12-18T23:45:17;98940.56;;;-1.46;78.03
43155;BME280;34212;51.018;13.586;2022-12-18T23:50:19;98922.25;;;-1.46;77.74
43155;BME280;34212;51.018;13.586;2022-12-18T23:55:30;98917.88;;;-1.46;77.57
